Pourquoi Pas — FMCY — position and weather

sailwx.info

Track history (hours):
 
Tides and Currents Weather Stations Pressure Air Temp Water Temp Dewpoint Dewpoint Depression Visibility Wind Speed Wind Dir Waves Ship Positions

Oceanographic research ship Pourquoi Pas (France)

Last reported at 2017-Oct-17 14:58 UTC. Time now 2017-Oct-17 15:09 UTC.
Position N 69°39' E 018°58'.

Length 108 m; beam 20 m.

Type: Dredging. MMSI: 228207600.

Date/timePositionNaut miles runAvg speedWind from/ knotsBaromVisibWave heightAir tempDewpointWater temp
2017-Oct-17 14:58N 69°39' E 018°58'0 0.0
2017-Oct-17 14:28N 69°39' E 018°58'0 0.0
2017-Oct-17 13:58N 69°39' E 018°58'0 0.0
2017-Oct-17 13:28N 69°39' E 018°58'0 0.0
2017-Oct-17 12:58N 69°39' E 018°58'0 0.0
2017-Oct-17 12:28N 69°39' E 018°58'0 0.0
2017-Oct-17 11:58N 69°39' E 018°58'0 0.0
2017-Oct-17 11:28N 69°39' E 018°58'0 0.0
2017-Oct-17 10:58N 69°39' E 018°58'0 0.0
2017-Oct-17 10:28N 69°39' E 018°58'0 0.0
2017-Oct-17 09:58N 69°39' E 018°58'0 0.0
2017-Oct-17 09:28N 69°39' E 018°58'0 0.0
2017-Oct-17 08:58N 69°39' E 018°58'0 0.0
2017-Oct-17 08:28N 69°39' E 018°58'0 0.0
2017-Oct-17 07:58N 69°39' E 018°58'0 0.0
2017-Oct-17 07:28N 69°39' E 018°58'0 0.0
2017-Oct-17 06:58N 69°39' E 018°58'0 0.0
2017-Oct-17 06:28N 69°39' E 018°58'0 0.0
2017-Oct-17 05:58N 69°39' E 018°58'0 0.0
2017-Oct-17 05:28N 69°39' E 018°58'0 0.0
2017-Oct-17 04:58N 69°39' E 018°58'0 0.0
2017-Oct-17 04:28N 69°39' E 018°58'0 0.0
2017-Oct-17 03:58N 69°39' E 018°58'0 0.0
2017-Oct-17 03:28N 69°39' E 018°58'0 0.0
2017-Oct-17 02:58N 69°39' E 018°58'0 0.0
2017-Oct-17 02:28N 69°39' E 018°58'0 0.0
2017-Oct-17 01:58N 69°39' E 018°58'0 0.0
2017-Oct-17 01:28N 69°39' E 018°58'0 0.0
2017-Oct-17 00:58N 69°39' E 018°58'0 0.0
2017-Oct-17 00:28N 69°39' E 018°58'0 0.0
2017-Oct-16 23:58N 69°39' E 018°58'0 0.0
2017-Oct-16 23:28N 69°39' E 018°58'0 0.0
2017-Oct-16 22:58N 69°39' E 018°58'0 0.0
2017-Oct-16 22:28N 69°39' E 018°58'0 0.0
2017-Oct-16 21:58N 69°39' E 018°58'0 0.0
2017-Oct-16 21:28N 69°39' E 018°58'0 0.0
2017-Oct-16 20:58N 69°39' E 018°58'0 0.0
2017-Oct-16 20:28N 69°39' E 018°58'0 0.0
2017-Oct-16 19:58N 69°39' E 018°58'0 0.0
2017-Oct-16 19:28N 69°39' E 018°58'0 0.0
2017-Oct-16 18:58N 69°39' E 018°58'0 0.0
2017-Oct-16 18:28N 69°39' E 018°58'0 0.0
2017-Oct-16 17:58N 69°39' E 018°58'0 0.0
2017-Oct-16 17:28N 69°39' E 018°58'0 0.0
2017-Oct-16 16:58N 69°39' E 018°58'0 0.0
2017-Oct-16 16:28N 69°39' E 018°58'0 0.0
2017-Oct-16 15:58N 69°39' E 018°58'0 0.0
2017-Oct-16 15:28N 69°39' E 018°58'0 0.0
2017-Oct-16 14:58N 69°39' E 018°58'0 0.0
2017-Oct-16 14:28N 69°39' E 018°58'0 0.0
2017-Oct-16 13:28N 69°39' E 018°58'0 0.0
2017-Oct-16 12:58N 69°39' E 018°58'0 0.0
2017-Oct-16 12:28N 69°39' E 018°58'0 0.0
2017-Oct-16 11:58N 69°39' E 018°58'0 0.0
2017-Oct-16 11:28N 69°39' E 018°58'0 0.0
2017-Oct-16 10:58N 69°39' E 018°58'0 0.0
2017-Oct-16 10:28N 69°39' E 018°58'0 0.0
2017-Oct-16 09:58N 69°39' E 018°58'0 0.0
2017-Oct-16 09:28N 69°39' E 018°58'0 0.0
2017-Oct-16 08:58N 69°39' E 018°58'0 0.0
2017-Oct-16 08:28N 69°39' E 018°58'0 0.0
2017-Oct-16 07:58N 69°39' E 018°58'0 0.0
2017-Oct-16 07:28N 69°39' E 018°58'0 0.0
2017-Oct-16 06:58N 69°39' E 018°58'0 0.0
2017-Oct-16 06:30N 69°39' E 018°58'1 1.4
2017-Oct-16 06:00N 69°38' E 018°57'5 9.9
2017-Oct-16 05:30N 69°34' E 018°49'612.5
2017-Oct-16 05:00N 69°32' E 018°32'611.5
2017-Oct-16 04:30N 69°31' E 018°16'5 8.9
2017-Oct-16 04:00N 69°32' E 018°03'4 7.2
2017-Oct-16 03:30N 69°34' E 017°56'3 6.4
2017-Oct-16 03:00N 69°37' E 017°51'4 7.1
2017-Oct-16 02:30N 69°40' E 017°48'4 7.3
2017-Oct-16 02:00N 69°44' E 017°46'3 6.9
2017-Oct-16 01:31N 69°47' E 017°43'4 7.0
2017-Oct-16 01:00N 69°51' E 017°40'4 7.2
2017-Oct-16 00:30N 69°54' E 017°38'4 7.7
2017-Oct-16 00:00N 69°58' E 017°35'4 7.1
2017-Oct-15 23:30N 70°01' E 017°32'3 6.0
2017-Oct-15 23:00N 70°04' E 017°30'  
Track history (hours):
 
Tides and Currents Weather Stations Pressure Air Temp Water Temp Dewpoint Dewpoint Depression Visibility Wind Speed Wind Dir Waves Ship Positions

Oceanographic research ship Pourquoi Pas (France)

Last reported at 2017-Oct-17 14:58 UTC. Time now 2017-Oct-17 15:09 UTC.
Position N 69°39' E 018°58'.

Length 108 m; beam 20 m.

Type: Dredging. MMSI: 228207600.

Date/timePositionNaut miles runAvg speedWind from/ knotsBaromVisibWave heightAir tempDewpointWater temp
2017-Oct-17 14:58N 69°39' E 018°58'0 0.0
2017-Oct-17 14:28N 69°39' E 018°58'0 0.0
2017-Oct-17 13:58N 69°39' E 018°58'0 0.0
2017-Oct-17 13:28N 69°39' E 018°58'0 0.0
2017-Oct-17 12:58N 69°39' E 018°58'0 0.0
2017-Oct-17 12:28N 69°39' E 018°58'0 0.0
2017-Oct-17 11:58N 69°39' E 018°58'0 0.0
2017-Oct-17 11:28N 69°39' E 018°58'0 0.0
2017-Oct-17 10:58N 69°39' E 018°58'0 0.0
2017-Oct-17 10:28N 69°39' E 018°58'0 0.0
2017-Oct-17 09:58N 69°39' E 018°58'0 0.0
2017-Oct-17 09:28N 69°39' E 018°58'0 0.0
2017-Oct-17 08:58N 69°39' E 018°58'0 0.0
2017-Oct-17 08:28N 69°39' E 018°58'0 0.0
2017-Oct-17 07:58N 69°39' E 018°58'0 0.0
2017-Oct-17 07:28N 69°39' E 018°58'0 0.0
2017-Oct-17 06:58N 69°39' E 018°58'0 0.0
2017-Oct-17 06:28N 69°39' E 018°58'0 0.0
2017-Oct-17 05:58N 69°39' E 018°58'0 0.0
2017-Oct-17 05:28N 69°39' E 018°58'0 0.0
2017-Oct-17 04:58N 69°39' E 018°58'0 0.0
2017-Oct-17 04:28N 69°39' E 018°58'0 0.0
2017-Oct-17 03:58N 69°39' E 018°58'0 0.0
2017-Oct-17 03:28N 69°39' E 018°58'0 0.0
2017-Oct-17 02:58N 69°39' E 018°58'0 0.0
2017-Oct-17 02:28N 69°39' E 018°58'0 0.0
2017-Oct-17 01:58N 69°39' E 018°58'0 0.0
2017-Oct-17 01:28N 69°39' E 018°58'0 0.0
2017-Oct-17 00:58N 69°39' E 018°58'0 0.0
2017-Oct-17 00:28N 69°39' E 018°58'0 0.0
2017-Oct-16 23:58N 69°39' E 018°58'0 0.0
2017-Oct-16 23:28N 69°39' E 018°58'0 0.0
2017-Oct-16 22:58N 69°39' E 018°58'0 0.0
2017-Oct-16 22:28N 69°39' E 018°58'0 0.0
2017-Oct-16 21:58N 69°39' E 018°58'0 0.0
2017-Oct-16 21:28N 69°39' E 018°58'0 0.0
2017-Oct-16 20:58N 69°39' E 018°58'0 0.0
2017-Oct-16 20:28N 69°39' E 018°58'0 0.0
2017-Oct-16 19:58N 69°39' E 018°58'0 0.0
2017-Oct-16 19:28N 69°39' E 018°58'0 0.0
2017-Oct-16 18:58N 69°39' E 018°58'0 0.0
2017-Oct-16 18:28N 69°39' E 018°58'0 0.0
2017-Oct-16 17:58N 69°39' E 018°58'0 0.0
2017-Oct-16 17:28N 69°39' E 018°58'0 0.0
2017-Oct-16 16:58N 69°39' E 018°58'0 0.0
2017-Oct-16 16:28N 69°39' E 018°58'0 0.0
2017-Oct-16 15:58N 69°39' E 018°58'0 0.0
2017-Oct-16 15:28N 69°39' E 018°58'0 0.0
2017-Oct-16 14:58N 69°39' E 018°58'0 0.0
2017-Oct-16 14:28N 69°39' E 018°58'0 0.0
2017-Oct-16 13:28N 69°39' E 018°58'0 0.0
2017-Oct-16 12:58N 69°39' E 018°58'0 0.0
2017-Oct-16 12:28N 69°39' E 018°58'0 0.0
2017-Oct-16 11:58N 69°39' E 018°58'0 0.0
2017-Oct-16 11:28N 69°39' E 018°58'0 0.0
2017-Oct-16 10:58N 69°39' E 018°58'0 0.0
2017-Oct-16 10:28N 69°39' E 018°58'0 0.0
2017-Oct-16 09:58N 69°39' E 018°58'0 0.0
2017-Oct-16 09:28N 69°39' E 018°58'0 0.0
2017-Oct-16 08:58N 69°39' E 018°58'0 0.0
2017-Oct-16 08:28N 69°39' E 018°58'0 0.0
2017-Oct-16 07:58N 69°39' E 018°58'0 0.0
2017-Oct-16 07:28N 69°39' E 018°58'0 0.0
2017-Oct-16 06:58N 69°39' E 018°58'0 0.0
2017-Oct-16 06:30N 69°39' E 018°58'1 1.4
2017-Oct-16 06:00N 69°38' E 018°57'5 9.9
2017-Oct-16 05:30N 69°34' E 018°49'612.5
2017-Oct-16 05:00N 69°32' E 018°32'611.5
2017-Oct-16 04:30N 69°31' E 018°16'5 8.9
2017-Oct-16 04:00N 69°32' E 018°03'4 7.2
2017-Oct-16 03:30N 69°34' E 017°56'3 6.4
2017-Oct-16 03:00N 69°37' E 017°51'4 7.1
2017-Oct-16 02:30N 69°40' E 017°48'4 7.3
2017-Oct-16 02:00N 69°44' E 017°46'3 6.9
2017-Oct-16 01:31N 69°47' E 017°43'4 7.0
2017-Oct-16 01:00N 69°51' E 017°40'4 7.2
2017-Oct-16 00:30N 69°54' E 017°38'4 7.7
2017-Oct-16 00:00N 69°58' E 017°35'4 7.1
2017-Oct-15 23:30N 70°01' E 017°32'3 6.0
2017-Oct-15 23:00N 70°04' E 017°30'  

Dump ship's entire track history